Time;durP1;ratioP1;P1;durP2;ratioP2;P2;SDS_P1;SDS_P2;PMS_P1;PMS_P2;Temp;Humidity;BMP_temperature;BMP_pressure;BME280_temperature;BME280_humidity;BME280_pressure;Samples;Min_cycle;Max_cycle;Signal;HPM_P1;HPM_P2
2022/07/27 00:00:24;;;;;;;1.87;1.43;;;19.00;99.90;;;;;;5012913;28;20288;-76
2022/07/27 00:02:50;;;;;;;2.00;1.53;;;19.20;99.90;;;;;;5012039;28;20204;-76
2022/07/27 00:05:16;;;;;;;2.40;1.33;;;19.20;99.90;;;;;;5011860;28;20197;-76
2022/07/27 00:07:42;;;;;;;2.23;1.50;;;19.20;99.90;;;;;;4994048;28;20452;-76
2022/07/27 00:10:08;;;;;;;2.27;1.23;;;19.10;99.90;;;;;;4994013;28;20243;-76
2022/07/27 00:12:33;;;;;;;2.00;1.50;;;19.10;99.90;;;;;;5011839;28;20185;-76
2022/07/27 00:14:59;;;;;;;1.70;1.30;;;19.00;99.90;;;;;;4993730;28;20964;-76
2022/07/27 00:17:25;;;;;;;3.90;1.63;;;19.00;99.90;;;;;;4993562;28;20621;-75
2022/07/27 00:19:51;;;;;;;1.87;1.13;;;19.00;99.90;;;;;;5010642;28;20256;-75
2022/07/27 00:22:17;;;;;;;4.70;1.50;;;18.90;99.90;;;;;;4993366;28;20554;-76
2022/07/27 00:24:42;;;;;;;5.43;1.30;;;18.80;99.90;;;;;;5011057;28;20215;-77
2022/07/27 00:27:08;;;;;;;1.40;1.20;;;18.70;99.90;;;;;;5010787;28;20179;-75
2022/07/27 00:29:34;;;;;;;1.97;1.63;;;18.70;99.90;;;;;;4992972;28;20189;-77
2022/07/27 00:32:00;;;;;;;4.40;1.70;;;18.70;99.90;;;;;;4993583;28;20181;-77
2022/07/27 00:34:25;;;;;;;5.67;1.50;;;18.40;99.90;;;;;;5011241;28;20829;-76
2022/07/27 00:36:51;;;;;;;4.67;1.60;;;18.20;99.90;;;;;;4993682;28;20576;-76
2022/07/27 00:39:17;;;;;;;4.57;1.50;;;18.10;99.90;;;;;;5010809;28;20222;-76
2022/07/27 00:41:42;;;;;;;7.07;1.60;;;18.00;99.90;;;;;;4992780;28;20183;-75
2022/07/27 00:44:09;;;;;;;1.90;1.30;;;18.10;99.90;;;;;;5010439;28;20188;-75
2022/07/27 00:46:35;;;;;;;5.73;1.83;;;18.20;99.90;;;;;;4992793;28;20208;-75
2022/07/27 00:49:01;;;;;;;3.33;1.67;;;18.30;99.90;;;;;;5010104;28;20523;-74
2022/07/27 00:51:27;;;;;;;2.50;1.23;;;18.20;99.90;;;;;;5010024;28;20540;-74
2022/07/27 00:53:53;;;;;;;2.50;1.50;;;18.20;99.90;;;;;;4992440;28;20422;-74
2022/07/27 00:56:20;;;;;;;1.30;1.20;;;18.20;99.90;;;;;;4992548;28;20181;-77
2022/07/27 00:58:49;;;;;;;5.87;1.77;;;18.20;99.90;;;;;;4992269;28;20842;-76
2022/07/27 01:01:17;;;;;;;3.83;1.80;;;18.20;99.90;;;;;;4976492;28;20492;-75
2022/07/27 01:03:43;;;;;;;4.00;2.07;;;18.20;99.90;;;;;;4991973;28;20541;-74
2022/07/27 01:06:09;;;;;;;5.00;1.50;;;18.20;99.90;;;;;;4992172;28;20519;-74
2022/07/27 01:08:35;;;;;;;2.50;1.30;;;17.90;99.90;;;;;;4991827;28;20264;-75
2022/07/27 01:11:01;;;;;;;3.03;1.80;;;17.60;99.90;;;;;;4996613;28;20189;-79
2022/07/27 01:13:27;;;;;;;3.50;1.63;;;17.10;99.90;;;;;;4997729;28;20516;-76
2022/07/27 01:15:53;;;;;;;2.07;1.27;;;16.90;99.90;;;;;;4991792;28;20523;-75
2022/07/27 01:18:32;;;;;;;4.40;2.00;;;16.90;99.90;;;;;;5009425;28;20665;-74
2022/07/27 01:20:59;;;;;;;2.13;1.47;;;17.10;99.90;;;;;;4991767;28;20412;-74
2022/07/27 01:23:25;;;;;;;5.10;1.90;;;17.20;99.90;;;;;;4991721;28;20419;-74
2022/07/27 01:25:52;;;;;;;3.53;1.73;;;17.30;99.90;;;;;;5009331;28;20777;-74
2022/07/27 01:28:17;;;;;;;6.07;1.80;;;17.20;99.90;;;;;;4975067;28;20991;-75
2022/07/27 01:30:43;;;;;;;4.23;1.80;;;17.20;99.90;;;;;;4974947;28;20441;-75
2022/07/27 01:33:09;;;;;;;2.13;1.37;;;17.30;99.90;;;;;;5009030;28;20581;-75
2022/07/27 01:35:39;;;;;;;7.70;1.97;;;17.30;99.90;;;;;;4991441;28;20717;-74
2022/07/27 01:38:07;;;;;;;4.73;1.80;;;17.20;99.90;;;;;;5009308;28;20447;-75
2022/07/27 01:40:35;;;;;;;3.67;1.80;;;17.20;99.90;;;;;;5009219;28;20419;-75
2022/07/27 01:43:01;;;;;;;3.23;1.77;;;17.20;99.90;;;;;;5009173;28;20426;-76
2022/07/27 01:45:27;;;;;;;3.20;1.87;;;17.20;99.90;;;;;;5009394;28;20451;-76
2022/07/27 01:47:52;;;;;;;3.80;1.80;;;17.30;99.90;;;;;;4991327;28;20208;-75
2022/07/27 01:50:18;;;;;;;6.20;1.53;;;17.30;99.90;;;;;;5009325;28;20194;-76
2022/07/27 01:52:44;;;;;;;2.50;2.03;;;17.30;99.90;;;;;;5009167;28;20193;-76
2022/07/27 01:55:10;;;;;;;9.83;1.63;;;17.40;99.90;;;;;;5009175;28;20284;-75
2022/07/27 01:57:36;;;;;;;3.90;1.73;;;17.40;99.90;;;;;;5008840;28;20239;-76
2022/07/27 02:00:05;;;;;;;4.30;2.07;;;17.40;99.90;;;;;;5011064;28;20426;-79
2022/07/27 02:02:30;;;;;;;1.70;1.60;;;17.20;99.90;;;;;;4978709;28;20462;-79
2022/07/27 02:04:56;;;;;;;3.87;1.80;;;17.00;99.90;;;;;;4978406;28;20486;-79
2022/07/27 02:07:22;;;;;;;3.30;2.40;;;16.70;99.90;;;;;;4977474;28;20212;-79
2022/07/27 02:09:48;;;;;;;4.87;2.17;;;16.60;99.90;;;;;;4977943;28;20197;-77
2022/07/27 02:14:58;;;;;;;7.50;2.70;;;16.60;99.90;;;;;;5010262;28;20261;-77
2022/07/27 02:17:23;;;;;;;4.17;2.00;;;16.60;99.90;;;;;;4980360;28;20427;-80
2022/07/27 02:19:49;;;;;;;2.70;2.47;;;16.60;99.90;;;;;;4994223;28;20184;-79
2022/07/27 02:22:15;;;;;;;2.83;1.67;;;16.50;99.90;;;;;;4975270;28;20198;-77
2022/07/27 02:24:41;;;;;;;6.43;2.27;;;16.60;99.90;;;;;;4976011;28;20187;-78
2022/07/27 02:27:07;;;;;;;4.23;2.10;;;16.80;99.90;;;;;;4992097;28;20458;-76
2022/07/27 02:29:33;;;;;;;3.67;2.13;;;16.80;99.90;;;;;;4991388;28;20274;-78
2022/07/27 02:31:58;;;;;;;6.80;2.60;;;16.90;99.90;;;;;;4992522;28;20220;-78
2022/07/27 02:34:24;;;;;;;4.07;2.70;;;16.80;99.90;;;;;;5009977;28;20270;-78
2022/07/27 02:36:49;;;;;;;3.60;2.77;;;16.80;99.90;;;;;;4992649;28;20235;-78
2022/07/27 02:39:15;;;;;;;4.43;2.57;;;16.70;99.90;;;;;;5008755;28;20208;-75
2022/07/27 02:41:41;;;;;;;2.90;2.40;;;16.70;99.90;;;;;;5008502;28;20188;-75
2022/07/27 02:44:06;;;;;;;3.83;2.40;;;16.80;99.90;;;;;;4993924;28;20185;-75
2022/07/27 02:46:32;;;;;;;3.00;2.27;;;16.80;99.90;;;;;;4995028;28;21065;-77
2022/07/27 02:48:58;;;;;;;6.13;2.40;;;16.90;99.90;;;;;;4995120;28;20208;-77
2022/07/27 02:51:23;;;;;;;3.93;2.53;;;16.80;99.90;;;;;;4978475;28;20188;-76
2022/07/27 02:53:49;;;;;;;5.77;2.50;;;16.80;99.90;;;;;;4994491;28;20552;-76
2022/07/27 02:56:14;;;;;;;3.80;2.40;;;16.80;99.90;;;;;;5012222;28;20249;-77
2022/07/27 02:58:40;;;;;;;3.30;2.30;;;16.80;99.90;;;;;;5012552;28;20251;-77
2022/07/27 03:01:06;;;;;;;2.90;2.10;;;16.90;99.90;;;;;;4995176;28;20235;-77
2022/07/27 03:03:32;;;;;;;2.50;2.30;;;16.90;99.90;;;;;;5012475;28;20231;-77
2022/07/27 03:05:57;;;;;;;3.73;2.17;;;17.10;99.90;;;;;;4978733;28;20438;-77
2022/07/27 03:08:23;;;;;;;3.63;2.00;;;17.20;99.90;;;;;;4978222;28;20227;-77
2022/07/27 03:10:49;;;;;;;4.53;2.97;;;17.30;99.90;;;;;;4978280;28;20188;-77
2022/07/27 03:13:14;;;;;;;5.93;2.40;;;17.20;99.90;;;;;;4994421;28;20626;-78
2022/07/27 03:15:40;;;;;;;8.43;2.40;;;17.00;99.90;;;;;;4994365;28;20250;-77
2022/07/27 03:18:05;;;;;;;2.50;2.27;;;16.80;99.90;;;;;;4994302;28;20205;-80
2022/07/27 03:20:31;;;;;;;5.13;2.53;;;16.70;99.90;;;;;;4977938;28;20666;-80
2022/07/27 03:22:57;;;;;;;4.40;2.30;;;16.70;99.90;;;;;;4994017;28;20188;-80
2022/07/27 03:25:23;;;;;;;5.23;2.33;;;16.60;99.90;;;;;;4994084;28;20793;-77
2022/07/27 03:27:49;;;;;;;5.30;2.20;;;16.70;99.90;;;;;;5011596;28;20444;-77
2022/07/27 03:30:15;;;;;;;4.90;2.23;;;16.60;99.90;;;;;;4994049;28;20605;-78
2022/07/27 03:32:40;;;;;;;3.03;2.60;;;16.60;99.90;;;;;;4994152;28;20524;-78
2022/07/27 03:35:06;;;;;;;6.57;2.73;;;16.70;99.90;;;;;;4977495;28;20922;-78
2022/07/27 03:37:32;;;;;;;4.80;2.10;;;16.70;99.90;;;;;;4993765;28;20319;-78
2022/07/27 03:39:58;;;;;;;5.20;2.40;;;16.90;99.90;;;;;;5011485;28;20881;-76
2022/07/27 03:42:24;;;;;;;3.67;2.20;;;16.80;99.90;;;;;;4977142;28;20530;-76
2022/07/27 03:44:50;;;;;;;6.07;1.87;;;16.60;99.90;;;;;;4993452;28;20194;-76
2022/07/27 03:47:17;;;;;;;9.60;2.10;;;16.50;99.90;;;;;;4977436;28;20233;-76
2022/07/27 03:49:42;;;;;;;3.07;2.13;;;16.50;99.90;;;;;;4993679;28;20490;-75
2022/07/27 03:52:08;;;;;;;4.30;2.33;;;16.70;99.90;;;;;;4993542;28;20807;-76
2022/07/27 03:54:34;;;;;;;2.53;2.30;;;16.70;99.90;;;;;;5010343;28;20231;-78
2022/07/27 03:57:01;;;;;;;7.10;2.27;;;16.60;99.90;;;;;;4993519;28;20673;-78
2022/07/27 03:59:27;;;;;;;5.83;2.40;;;16.50;99.90;;;;;;4977750;28;20211;-77
2022/07/27 04:01:53;;;;;;;6.90;2.37;;;16.50;99.90;;;;;;5003862;28;20473;-80
2022/07/27 04:04:18;;;;;;;3.97;2.77;;;16.40;99.90;;;;;;5036906;28;20458;-81
2022/07/27 04:06:44;;;;;;;2.90;1.83;;;16.50;99.90;;;;;;5018826;28;20438;-81
2022/07/27 04:09:10;;;;;;;2.90;2.60;;;16.60;99.90;;;;;;5003609;28;20214;-82
2022/07/27 04:11:36;;;;;;;6.73;2.40;;;16.60;99.90;;;;;;5014566;28;20749;-78
2022/07/27 04:14:02;;;;;;;6.33;2.60;;;16.60;99.90;;;;;;4977109;28;20203;-79
2022/07/27 04:16:28;;;;;;;2.50;2.30;;;16.70;99.90;;;;;;5010996;28;20537;-79
2022/07/27 04:18:53;;;;;;;5.27;3.00;;;16.90;99.90;;;;;;4992260;28;20455;-79
2022/07/27 04:21:19;;;;;;;4.30;2.73;;;16.90;99.90;;;;;;5010081;28;20637;-78
2022/07/27 04:23:45;;;;;;;8.77;2.47;;;17.00;99.90;;;;;;4992084;28;20192;-79
2022/07/27 04:26:10;;;;;;;2.13;1.93;;;17.10;99.90;;;;;;4991684;28;20191;-79
2022/07/27 04:28:36;;;;;;;4.57;2.80;;;17.20;99.90;;;;;;4991993;28;20211;-78
2022/07/27 04:31:02;;;;;;;2.40;2.20;;;17.30;99.90;;;;;;4991658;28;20254;-79
2022/07/27 04:33:27;;;;;;;3.33;2.47;;;17.40;99.90;;;;;;4975213;28;20219;-79
2022/07/27 04:35:53;;;;;;;3.27;2.40;;;17.50;99.90;;;;;;4991213;28;20597;-78
2022/07/27 04:38:19;;;;;;;5.07;3.80;;;17.60;99.90;;;;;;4975023;28;20213;-78
2022/07/27 04:40:44;;;;;;;18.50;9.13;;;17.70;99.90;;;;;;4991176;28;20224;-78
2022/07/27 04:43:10;;;;;;;26.47;17.30;;;17.70;99.90;;;;;;4974992;28;20241;-78
2022/07/27 04:45:36;;;;;;;24.17;15.13;;;17.50;99.90;;;;;;4974883;28;20223;-78
2022/07/27 04:48:06;;;;;;;27.10;16.33;;;17.70;99.90;;;;;;4990961;28;20216;-78
2022/07/27 04:50:37;;;;;;;24.77;15.73;;;17.50;99.90;;;;;;5008703;28;20975;-78
2022/07/27 04:53:02;;;;;;;19.70;10.90;;;17.60;99.90;;;;;;5008588;28;20781;-79
2022/07/27 04:55:28;;;;;;;11.80;7.07;;;17.70;99.90;;;;;;4974489;28;20474;-78
2022/07/27 04:57:54;;;;;;;14.43;8.93;;;17.80;99.90;;;;;;4991235;28;20215;-78
2022/07/27 05:00:19;;;;;;;9.47;7.00;;;17.90;99.90;;;;;;5008692;28;20817;-78
2022/07/27 05:02:45;;;;;;;10.53;5.60;;;17.90;99.90;;;;;;4976535;28;20193;-80
2022/07/27 05:05:10;;;;;;;7.07;5.07;;;18.00;99.90;;;;;;4992813;28;20201;-78
2022/07/27 05:07:36;;;;;;;9.77;6.10;;;18.00;99.90;;;;;;4990593;28;20207;-78
2022/07/27 05:10:02;;;;;;;12.23;6.67;;;18.00;99.90;;;;;;4974504;28;20199;-80
2022/07/27 05:12:28;;;;;;;9.07;5.97;;;18.10;99.90;;;;;;5008815;28;20291;-78
2022/07/27 05:14:54;;;;;;;6.87;4.63;;;18.10;99.90;;;;;;5008235;28;21117;-77
2022/07/27 05:17:19;;;;;;;10.03;4.47;;;18.20;99.90;;;;;;5008139;28;20187;-78
2022/07/27 05:19:45;;;;;;;8.80;4.30;;;18.20;99.90;;;;;;4990481;28;20194;-78
2022/07/27 05:22:10;;;;;;;8.37;3.40;;;18.20;99.90;;;;;;4974099;28;20299;-78
2022/07/27 05:24:36;;;;;;;4.20;3.40;;;18.20;99.90;;;;;;4990340;28;20610;-77
2022/07/27 05:27:02;;;;;;;5.67;3.13;;;18.30;99.90;;;;;;4990317;28;20291;-77
2022/07/27 05:29:27;;;;;;;9.30;3.63;;;18.40;99.90;;;;;;5007791;28;20342;-77
2022/07/27 05:31:53;;;;;;;5.40;3.07;;;18.40;99.90;;;;;;5008070;28;20196;-78
2022/07/27 05:34:19;;;;;;;5.00;3.30;;;18.40;99.90;;;;;;4990439;28;20215;-77
2022/07/27 05:36:44;;;;;;;2.93;2.70;;;18.50;99.90;;;;;;5008140;28;20250;-77
2022/07/27 05:39:10;;;;;;;3.60;3.30;;;18.50;99.90;;;;;;4990458;28;20228;-77
2022/07/27 05:41:36;;;;;;;7.33;3.30;;;18.50;99.90;;;;;;4990559;28;20271;-77
2022/07/27 05:44:01;;;;;;;2.97;2.77;;;18.60;99.90;;;;;;4974249;28;20674;-77
2022/07/27 05:46:27;;;;;;;6.10;3.23;;;18.70;99.90;;;;;;4990915;28;20190;-78
2022/07/27 05:48:53;;;;;;;7.50;2.80;;;18.80;99.90;;;;;;4991689;28;20208;-78
2022/07/27 05:51:18;;;;;;;4.23;2.60;;;18.80;99.90;;;;;;4990644;28;20670;-77
2022/07/27 05:53:44;;;;;;;8.57;3.20;;;18.90;99.90;;;;;;4990675;28;20186;-78
2022/07/27 05:56:10;;;;;;;9.40;3.27;;;18.90;99.90;;;;;;5008145;28;20205;-78
2022/07/27 05:58:35;;;;;;;4.33;3.00;;;19.00;99.90;;;;;;4990479;28;20232;-78
2022/07/27 06:01:01;;;;;;;5.33;3.27;;;19.00;99.90;;;;;;4990632;28;20424;-78
2022/07/27 06:03:27;;;;;;;6.43;3.50;;;19.00;99.90;;;;;;5008240;28;20205;-78
2022/07/27 06:07:57;;;;;;;6.40;3.80;;;19.00;99.90;;;;;;4990878;28;20177;-78
2022/07/27 06:08:38;;;;;;;4.57;3.20;;;19.00;99.90;;;;;;4993214;28;20274;-77
2022/07/27 06:11:04;;;;;;;5.03;3.50;;;19.10;99.90;;;;;;5008407;28;20432;-78
2022/07/27 06:13:30;;;;;;;3.60;3.17;;;19.20;99.90;;;;;;5008457;28;20605;-78
2022/07/27 06:15:56;;;;;;;5.10;3.63;;;19.20;99.90;;;;;;4990979;28;20202;-78
2022/07/27 06:18:21;;;;;;;4.73;3.20;;;19.30;99.90;;;;;;4990214;28;20456;-77
2022/07/27 06:20:47;;;;;;;7.53;4.07;;;19.30;99.90;;;;;;4990855;28;20197;-79
2022/07/27 06:23:13;;;;;;;4.07;3.53;;;19.40;99.90;;;;;;4990861;28;20247;-78
2022/07/27 06:25:38;;;;;;;4.73;3.63;;;19.40;99.90;;;;;;5008581;28;20603;-78
2022/07/27 06:28:04;;;;;;;10.73;4.63;;;19.40;99.90;;;;;;4990491;28;20223;-78
2022/07/27 06:30:30;;;;;;;4.50;4.10;;;19.50;99.90;;;;;;4990643;28;20264;-78
2022/07/27 06:32:57;;;;;;;7.37;3.67;;;19.50;99.90;;;;;;4990563;28;20865;-78
2022/07/27 06:35:23;;;;;;;8.10;4.87;;;19.50;99.90;;;;;;4989803;28;20205;-78
2022/07/27 06:37:51;;;;;;;7.00;4.23;;;19.60;99.90;;;;;;4973385;28;20977;-77
2022/07/27 06:40:18;;;;;;;5.73;4.67;;;19.70;99.90;;;;;;5007773;28;20173;-77
2022/07/27 06:42:44;;;;;;;7.77;4.00;;;19.70;99.90;;;;;;5007559;28;20445;-79
2022/07/27 06:45:10;;;;;;;6.67;3.80;;;19.80;99.90;;;;;;5007803;28;20451;-78
2022/07/27 06:47:36;;;;;;;9.57;4.00;;;19.90;99.90;;;;;;5008213;28;20204;-78
2022/07/27 06:50:02;;;;;;;4.33;3.70;;;20.20;99.90;;;;;;4990345;28;20511;-78
2022/07/27 06:52:28;;;;;;;6.30;4.50;;;20.40;99.90;;;;;;4990353;28;20538;-78
2022/07/27 06:54:54;;;;;;;4.80;4.30;;;20.60;99.90;;;;;;4990186;28;20578;-78
2022/07/27 06:57:19;;;;;;;10.30;4.20;;;20.60;99.90;;;;;;4990121;28;20226;-76
2022/07/27 06:59:45;;;;;;;14.23;4.47;;;20.50;99.90;;;;;;4990577;28;20629;-77
2022/07/27 07:02:10;;;;;;;8.03;4.37;;;20.50;99.90;;;;;;4990264;28;20190;-77
2022/07/27 07:04:36;;;;;;;6.40;4.00;;;20.50;99.90;;;;;;4989994;28;20218;-78
2022/07/27 07:07:02;;;;;;;4.60;4.20;;;20.50;99.90;;;;;;4990187;28;20275;-78
2022/07/27 07:09:28;;;;;;;11.07;4.40;;;20.30;99.90;;;;;;4990347;28;20225;-79
2022/07/27 07:11:55;;;;;;;5.30;4.50;;;20.40;99.90;;;;;;4990349;28;20547;-78
2022/07/27 07:14:22;;;;;;;9.20;4.93;;;20.40;99.90;;;;;;5008228;28;20468;-78
2022/07/27 07:16:48;;;;;;;9.50;4.53;;;20.40;99.90;;;;;;4990515;28;20487;-78
2022/07/27 07:19:14;;;;;;;5.00;4.10;;;20.30;99.90;;;;;;5007892;28;20483;-78
2022/07/27 07:21:40;;;;;;;10.03;4.30;;;20.50;99.90;;;;;;4990734;28;20443;-78
2022/07/27 07:24:05;;;;;;;6.37;4.63;;;20.50;99.90;;;;;;4990496;28;20915;-78
2022/07/27 07:26:31;;;;;;;5.53;4.20;;;20.50;99.90;;;;;;4990625;28;20268;-78
2022/07/27 07:28:58;;;;;;;10.20;4.57;;;20.50;99.90;;;;;;5008855;28;20205;-77
2022/07/27 07:31:23;;;;;;;9.80;3.80;;;20.40;99.90;;;;;;5012657;28;20841;-78
2022/07/27 07:33:49;;;;;;;13.50;3.83;;;20.60;99.90;;;;;;5012715;28;20511;-78
2022/07/27 07:36:15;;;;;;;7.50;3.80;;;20.60;99.90;;;;;;5012497;28;20282;-79
2022/07/27 07:38:42;;;;;;;4.80;3.73;;;20.70;99.90;;;;;;4995376;28;20666;-78
2022/07/27 07:41:08;;;;;;;11.07;4.30;;;20.80;99.90;;;;;;5011673;28;20217;-78
2022/07/27 07:43:35;;;;;;;6.20;3.60;;;20.80;99.90;;;;;;5010766;28;20479;-78
2022/07/27 07:46:01;;;;;;;10.93;4.70;;;20.80;99.90;;;;;;5010794;28;20427;-78
2022/07/27 07:48:27;;;;;;;7.67;5.10;;;20.70;99.90;;;;;;4993119;28;20534;-78
2022/07/27 07:50:53;;;;;;;6.30;4.47;;;20.60;99.90;;;;;;4977378;28;20440;-78
2022/07/27 07:53:22;;;;;;;5.77;4.93;;;20.50;99.90;;;;;;4993463;28;20368;-77
2022/07/27 07:55:48;;;;;;;11.87;5.00;;;20.30;99.90;;;;;;4976938;28;20222;-77
2022/07/27 07:58:14;;;;;;;6.40;5.23;;;20.30;99.90;;;;;;5010787;28;20861;-77
2022/07/27 08:00:40;;;;;;;6.73;4.80;;;20.10;99.90;;;;;;5010927;28;20427;-79
2022/07/27 08:03:06;;;;;;;5.37;4.40;;;20.40;99.90;;;;;;4992946;28;20224;-78
2022/07/27 08:05:32;;;;;;;6.80;4.37;;;20.80;99.90;;;;;;4976886;28;20444;-78
2022/07/27 08:07:58;;;;;;;6.10;4.60;;;21.10;99.90;;;;;;4976709;28;20215;-77
2022/07/27 08:10:24;;;;;;;5.30;4.40;;;21.20;99.90;;;;;;5010765;28;20447;-78
2022/07/27 08:12:52;;;;;;;4.27;3.80;;;21.20;99.90;;;;;;4993100;28;20427;-79
2022/07/27 08:15:19;;;;;;;8.63;4.33;;;21.40;99.90;;;;;;5011028;28;20610;-76
2022/07/27 08:17:45;;;;;;;12.50;4.10;;;21.60;99.90;;;;;;4993361;28;20452;-76
2022/07/27 08:20:13;;;;;;;7.57;4.53;;;21.70;99.90;;;;;;5011494;28;20490;-76
2022/07/27 08:22:39;;;;;;;6.80;4.23;;;21.90;99.90;;;;;;4994251;28;20499;-76
2022/07/27 08:25:05;;;;;;;8.20;5.30;;;22.00;99.90;;;;;;5011529;28;20972;-76
2022/07/27 08:27:31;;;;;;;7.17;4.63;;;22.00;99.90;;;;;;5010674;28;20453;-76
2022/07/27 08:29:57;;;;;;;6.77;4.20;;;21.90;99.90;;;;;;5010815;28;20435;-76
2022/07/27 08:32:23;;;;;;;7.70;4.00;;;22.00;99.90;;;;;;4993576;28;20449;-76
2022/07/27 08:34:50;;;;;;;8.50;4.80;;;22.10;99.90;;;;;;5010829;28;20198;-76
2022/07/27 08:37:16;;;;;;;4.13;3.73;;;22.30;99.90;;;;;;5010679;28;20521;-75
2022/07/27 08:39:41;;;;;;;7.37;4.60;;;22.40;99.90;;;;;;5011997;28;20420;-77
2022/07/27 08:42:09;;;;;;;4.93;4.00;;;22.60;99.90;;;;;;4992533;28;20192;-76
2022/07/27 08:44:40;;;;;;;10.17;4.10;;;22.60;99.90;;;;;;4992611;28;20763;-76
2022/07/27 08:47:09;;;;;;;4.07;3.43;;;22.70;99.90;;;;;;5010550;28;20422;-76
2022/07/27 08:49:38;;;;;;;6.33;4.90;;;22.80;99.90;;;;;;4992719;28;20531;-76
2022/07/27 08:52:04;;;;;;;8.40;3.30;;;22.90;99.90;;;;;;4992804;28;20864;-76
2022/07/27 08:54:30;;;;;;;7.20;4.83;;;22.90;99.90;;;;;;5010402;28;20484;-76
2022/07/27 08:56:56;;;;;;;9.90;5.83;;;22.80;99.90;;;;;;5010737;28;20421;-76
2022/07/27 08:59:22;;;;;;;6.07;4.70;;;22.50;99.70;;;;;;4993272;28;20525;-76
2022/07/27 09:01:47;;;;;;;6.77;4.10;;;22.40;99.90;;;;;;4993338;28;20182;-76
2022/07/27 09:04:13;;;;;;;4.60;4.20;;;22.90;99.90;;;;;;4993118;28;20293;-76
2022/07/27 09:06:40;;;;;;;11.20;4.37;;;23.10;99.90;;;;;;4993206;28;20607;-76
2022/07/27 09:09:06;;;;;;;9.73;4.60;;;23.40;99.90;;;;;;4993030;28;20217;-76
2022/07/27 09:11:35;;;;;;;5.93;3.57;;;23.50;99.60;;;;;;5010786;28;20510;-76
2022/07/27 09:14:02;;;;;;;5.93;4.13;;;23.80;99.30;;;;;;4993775;28;20214;-76
2022/07/27 09:16:31;;;;;;;4.63;4.10;;;24.00;99.90;;;;;;5010275;28;20939;-76
2022/07/27 09:19:00;;;;;;;12.90;4.43;;;23.90;98.10;;;;;;4976011;28;20458;-76
2022/07/27 09:21:27;;;;;;;7.03;4.13;;;23.90;98.70;;;;;;5010105;28;20408;-76
2022/07/27 09:24:09;;;;;;;4.43;3.50;;;24.20;96.90;;;;;;4975834;28;20436;-76
2022/07/27 09:26:36;;;;;;;4.07;3.67;;;24.30;96.80;;;;;;5010043;28;20861;-75
2022/07/27 09:29:05;;;;;;;4.53;3.13;;;24.10;96.90;;;;;;5009593;28;20424;-75
2022/07/27 09:31:32;;;;;;;8.07;4.20;;;24.50;97.00;;;;;;4993837;28;20438;-77
2022/07/27 09:34:00;;;;;;;6.90;4.03;;;24.60;95.60;;;;;;4993724;28;20488;-76
2022/07/27 09:36:28;;;;;;;6.50;4.13;;;24.70;95.70;;;;;;5010805;28;20457;-76
2022/07/27 09:39:02;;;;;;;6.00;3.53;;;24.40;95.70;;;;;;4992132;28;20471;-76
2022/07/27 09:41:49;;;;;;;4.60;4.10;;;24.90;95.30;;;;;;4993977;28;20428;-77
2022/07/27 09:44:15;;;;;;;4.90;4.27;;;25.40;94.90;;;;;;5012408;28;20925;-76
2022/07/27 09:46:43;;;;;;;8.83;4.33;;;25.40;92.70;;;;;;4994849;28;20850;-77
2022/07/27 09:49:29;;;;;;;10.03;4.90;;;25.90;92.30;;;;;;4993444;28;20988;-76
2022/07/27 09:51:59;;;;;;;7.90;4.37;;;26.30;91.20;;;;;;5011141;28;20519;-77
2022/07/27 09:54:25;;;;;;;6.10;3.77;;;26.70;90.70;;;;;;4993375;28;20468;-76
2022/07/27 09:57:01;;;;;;;5.87;4.20;;;27.10;90.60;;;;;;5012962;28;20420;-76
2022/07/27 09:59:28;;;;;;;4.50;4.10;;;27.30;87.70;;;;;;5013234;28;20224;-77
2022/07/27 10:01:55;;;;;;;11.97;5.27;;;27.30;87.20;;;;;;5012712;28;20969;-76
2022/07/27 10:04:22;;;;;;;4.73;3.93;;;27.60;87.50;;;;;;4977205;28;20450;-77
2022/07/27 10:06:48;;;;;;;5.57;3.30;;;27.50;84.90;;;;;;5012996;28;20478;-76
2022/07/27 10:09:14;;;;;;;8.20;4.40;;;28.00;85.40;;;;;;4995961;28;20945;-77
2022/07/27 10:11:40;;;;;;;7.60;3.83;;;27.90;84.00;;;;;;5014308;28;20460;-77
2022/07/27 10:14:06;;;;;;;11.20;5.10;;;27.60;83.70;;;;;;5013632;28;20446;-77
2022/07/27 10:16:33;;;;;;;6.80;4.10;;;27.20;85.00;;;;;;5013499;28;20506;-77
2022/07/27 10:19:17;;;;;;;7.90;3.70;;;27.40;85.00;;;;;;5012437;28;20705;-77
2022/07/27 10:21:45;;;;;;;7.77;4.60;;;27.70;85.10;;;;;;4996727;28;20427;-77
2022/07/27 10:24:24;;;;;;;5.80;4.77;;;27.80;84.40;;;;;;4996645;28;20542;-77
2022/07/27 10:26:49;;;;;;;4.40;3.83;;;27.60;84.40;;;;;;5013560;28;20922;-76
2022/07/27 10:29:18;;;;;;;8.73;3.87;;;27.70;84.40;;;;;;4976452;28;20452;-76
2022/07/27 10:31:52;;;;;;;9.93;4.10;;;27.80;83.20;;;;;;4992309;28;20251;-77
2022/07/27 10:34:41;;;;;;;10.50;3.87;;;27.30;82.10;;;;;;5009339;28;20479;-76
2022/07/27 10:37:12;;;;;;;3.80;3.50;;;26.80;83.20;;;;;;5009819;28;20515;-76
2022/07/27 10:39:43;;;;;;;6.00;3.80;;;26.70;85.20;;;;;;5009488;28;20507;-76
2022/07/27 10:42:28;;;;;;;9.90;3.40;;;26.80;84.80;;;;;;5009700;28;20416;-76
2022/07/27 10:44:58;;;;;;;4.67;3.63;;;26.90;85.30;;;;;;4991865;28;20420;-76
2022/07/27 10:47:33;;;;;;;6.13;4.23;;;26.90;83.40;;;;;;4991462;28;20445;-76
2022/07/27 10:50:16;;;;;;;6.87;3.70;;;26.80;84.50;;;;;;5009082;28;20469;-76
2022/07/27 10:52:48;;;;;;;8.03;4.70;;;26.90;84.40;;;;;;5008699;28;20899;-76
2022/07/27 10:55:29;;;;;;;6.77;3.53;;;27.40;82.90;;;;;;4975304;28;20997;-76
2022/07/27 10:58:14;;;;;;;7.67;3.83;;;27.50;82.50;;;;;;5008958;28;20440;-76
2022/07/27 11:00:49;;;;;;;13.60;5.03;;;27.40;81.20;;;;;;5008429;28;20423;-76
2022/07/27 11:03:24;;;;;;;5.30;3.87;;;26.90;81.10;;;;;;5008329;28;20423;-76
2022/07/27 11:05:56;;;;;;;4.30;3.90;;;27.10;87.80;;;;;;4978762;28;20435;-76
2022/07/27 11:08:33;;;;;;;4.50;2.97;;;27.90;83.30;;;;;;4994920;28;20451;-75
2022/07/27 11:10:59;;;;;;;4.40;3.13;;;28.30;81.00;;;;;;4995026;28;20453;-77
2022/07/27 11:13:27;;;;;;;4.87;3.80;;;28.90;81.20;;;;;;4995636;28;21002;-78
2022/07/27 11:15:59;;;;;;;6.10;4.27;;;29.10;78.30;;;;;;5013008;28;20456;-78
2022/07/27 11:18:29;;;;;;;6.27;3.30;;;29.10;78.80;;;;;;5012975;28;20493;-78
2022/07/27 11:21:18;;;;;;;4.07;3.67;;;28.90;76.60;;;;;;5032826;28;20587;-78
2022/07/27 11:23:46;;;;;;;3.80;3.00;;;29.30;76.90;;;;;;5035848;28;20418;-79
2022/07/27 11:26:12;;;;;;;4.20;3.60;;;29.50;75.60;;;;;;5035259;28;20430;-78
2022/07/27 11:28:38;;;;;;;4.00;3.60;;;29.30;75.50;;;;;;5030022;28;20455;-78
2022/07/27 11:31:05;;;;;;;4.03;3.30;;;29.00;75.60;;;;;;4995880;28;20636;-78
2022/07/27 11:33:32;;;;;;;3.40;3.10;;;28.50;76.10;;;;;;4993879;28;20511;-78
2022/07/27 11:36:04;;;;;;;7.30;3.30;;;28.40;77.90;;;;;;4993793;28;20562;-78
2022/07/27 11:39:01;;;;;;;4.90;3.70;;;29.00;75.80;;;;;;4993910;28;20456;-78
2022/07/27 11:41:29;;;;;;;3.60;3.30;;;29.00;70.10;;;;;;5010894;28;20416;-78
2022/07/27 11:44:00;;;;;;;5.50;2.60;;;29.20;73.70;;;;;;4993311;28;20416;-78
2022/07/27 11:46:29;;;;;;;2.47;2.27;;;29.50;72.40;;;;;;4993132;28;20781;-78
2022/07/27 11:49:02;;;;;;;2.60;2.40;;;29.70;70.30;;;;;;5010355;28;20473;-77
2022/07/27 11:51:29;;;;;;;3.93;2.63;;;30.00;70.40;;;;;;5010761;28;20431;-78
2022/07/27 11:53:56;;;;;;;5.03;3.13;;;30.30;69.00;;;;;;5010651;28;20436;-78
2022/07/27 11:56:24;;;;;;;5.03;3.60;;;30.20;69.00;;;;;;4992768;28;21002;-77
2022/07/27 11:59:00;;;;;;;3.70;3.07;;;30.20;70.80;;;;;;4992495;28;20517;-78
2022/07/27 12:01:32;;;;;;;12.90;2.93;;;30.10;68.70;;;;;;5010760;28;20844;-78
2022/07/27 12:04:14;;;;;;;4.10;2.70;;;30.00;68.30;;;;;;4992418;28;20443;-78
2022/07/27 12:06:53;;;;;;;5.37;3.03;;;29.90;68.10;;;;;;5010097;28;20502;-78
2022/07/27 12:09:19;;;;;;;4.20;2.93;;;30.10;68.20;;;;;;5010051;28;21100;-78
2022/07/27 12:11:57;;;;;;;2.70;2.50;;;30.20;68.00;;;;;;5010120;28;20431;-78
2022/07/27 12:14:35;;;;;;;3.73;2.40;;;30.30;67.10;;;;;;5010393;28;21135;-78
2022/07/27 12:17:09;;;;;;;2.47;2.27;;;30.40;65.40;;;;;;5009143;28;20478;-78
2022/07/27 12:19:35;;;;;;;5.20;1.97;;;30.30;65.80;;;;;;5009697;28;20416;-78
2022/07/27 12:22:02;;;;;;;7.27;2.13;;;30.40;63.80;;;;;;4991888;28;20440;-77
2022/07/27 12:24:46;;;;;;;7.70;2.23;;;30.40;63.90;;;;;;4992196;28;20205;-77
2022/07/27 12:27:13;;;;;;;7.53;2.20;;;30.80;63.20;;;;;;4975671;28;20482;-77
2022/07/27 12:29:55;;;;;;;2.03;1.40;;;30.70;59.40;;;;;;5009911;28;20451;-79
2022/07/27 12:32:21;;;;;;;1.50;1.13;;;30.70;57.20;;;;;;5010368;28;20946;-78
2022/07/27 12:34:47;;;;;;;2.33;1.47;;;30.50;56.10;;;;;;5010007;28;20459;-79
2022/07/27 12:37:13;;;;;;;2.10;1.27;;;30.50;55.20;;;;;;4991969;28;20439;-78
2022/07/27 12:39:43;;;;;;;3.37;1.80;;;30.40;53.90;;;;;;5009922;28;20244;-78
2022/07/27 12:42:10;;;;;;;1.50;1.40;;;30.30;54.90;;;;;;5010176;28;20188;-79
2022/07/27 12:44:39;;;;;;;1.93;1.53;;;30.20;56.00;;;;;;4992204;28;21011;-78
2022/07/27 12:50:03;;;;;;;5.30;2.50;;;29.30;58.40;;;;;;5009660;28;20427;-77
2022/07/27 12:52:29;;;;;;;3.23;1.77;;;29.10;59.60;;;;;;5009085;28;20420;-77